KGUP/GUP METAR and TAF weather

Enter ICAO airport designator
Station Type Date Time Source
KGUP METAR 2020/01/29 12:53 UTC NOAA

KGUP 291253Z AUTO 06004KT 10SM BKN110 M03/M06 A3004 RMK AO2 SLP183 T10331056


Station Type Date Time Source
KGUP Decoded METAR 2020/01/29 12:53 UTC NOAA

GALLUP MUNICIPAL AIRPORT, NM, United States (KGUP) 35-31N 108-47W 1971M
Jan 29, 2020 - 07:53 AM EST / 2020.01.29 1253 UTC
Wind: from the ENE (060 degrees) at 5 MPH (4 KT):0
Visibility: 10 mile(s):0
Sky conditions: mostly cloudy
Temperature: 26.1 F (-3.3 C)
Windchill: 19 F (-7 C):1
Dew Point: 21.9 F (-5.6 C)
Relative Humidity: 84%
Pressure (altimeter): 30.04 in. Hg (1017 hPa)
ob: KGUP 291253Z AUTO 06004KT 10SM BKN110 M03/M06 A3004 RMK AO2 SLP183 T10331056
cycle: 13

Station Type Date Time Source
KGUP TAF 2020/01/29 12:42 UTC NOAA

TAF KGUP 291140Z 2912/3012 VRB06KT P6SM VCSH SCT035 BKN060
TEMPO 2914/2918 4SM -SHSN BR SCT020 BKN035
FM291800 03005KT 3SM -SHSN BR SCT009 BKN020
FM292100 03007KT P6SM VCSH SCT020 BKN035
FM300000 VRB06KT P6SM SCT035 BKN050
FM300600 VRB03KT P6SM VCFG SCT005

Example: see airport list